Terminal Aerodrome Forecast
Issued by NWS Cleveland, OH

Home | Current Version | Previous Version | Text Only | Print | Product List | Glossary Off
Versions: 1 2 3 4 5 6 7 8 9 10 11 12 13 14 15

993
FTUS41 KCLE 140533
TAFMFD
TAF
KMFD 140533Z 1406/1506 00000KT P6SM VCSH OVC035
     FM140800 00000KT P6SM BKN090
     FM141100 00000KT P6SM SCT100
     FM142200 16006KT P6SM SCT150
     FM150300 14006KT P6SM BKN200=

USA.gov is the U.S. government's official web portal to all federal, state and local government web resources and services.